sensor_id;sensor_type;location;lat;lon;timestamp;P1;durP1;ratioP1;P2;durP2;ratioP2
8104;SDS011;4095;48.942;9.104;2022-08-19T00:00:17;13.07;;;11.82;;
8104;SDS011;4095;48.942;9.104;2022-08-19T00:02:43;13.50;;;12.30;;
8104;SDS011;4095;48.942;9.104;2022-08-19T00:05:10;13.02;;;11.90;;
8104;SDS011;4095;48.942;9.104;2022-08-19T00:07:37;12.73;;;11.63;;
8104;SDS011;4095;48.942;9.104;2022-08-19T00:10:04;14.25;;;12.90;;
8104;SDS011;4095;48.942;9.104;2022-08-19T00:12:31;13.95;;;12.63;;
8104;SDS011;4095;48.942;9.104;2022-08-19T00:14:57;13.55;;;12.32;;
8104;SDS011;4095;48.942;9.104;2022-08-19T00:17:22;12.60;;;11.43;;
8104;SDS011;4095;48.942;9.104;2022-08-19T00:19:48;13.00;;;11.80;;
8104;SDS011;4095;48.942;9.104;2022-08-19T00:22:13;13.75;;;12.30;;
8104;SDS011;4095;48.942;9.104;2022-08-19T00:24:39;13.57;;;12.20;;
8104;SDS011;4095;48.942;9.104;2022-08-19T00:27:06;14.18;;;12.70;;
8104;SDS011;4095;48.942;9.104;2022-08-19T00:29:32;13.25;;;12.00;;
8104;SDS011;4095;48.942;9.104;2022-08-19T00:31:57;14.35;;;12.98;;
8104;SDS011;4095;48.942;9.104;2022-08-19T00:34:25;14.20;;;12.90;;
8104;SDS011;4095;48.942;9.104;2022-08-19T00:36:53;13.45;;;12.32;;
8104;SDS011;4095;48.942;9.104;2022-08-19T00:39:20;13.85;;;12.55;;
8104;SDS011;4095;48.942;9.104;2022-08-19T00:41:46;14.35;;;12.90;;
8104;SDS011;4095;48.942;9.104;2022-08-19T00:44:15;13.13;;;11.93;;
8104;SDS011;4095;48.942;9.104;2022-08-19T00:46:46;13.85;;;12.55;;
8104;SDS011;4095;48.942;9.104;2022-08-19T00:49:17;13.77;;;12.48;;
8104;SDS011;4095;48.942;9.104;2022-08-19T00:52:07;14.02;;;12.73;;
8104;SDS011;4095;48.942;9.104;2022-08-19T00:54:37;13.68;;;12.38;;
8104;SDS011;4095;48.942;9.104;2022-08-19T00:57:04;12.85;;;11.75;;
8104;SDS011;4095;48.942;9.104;2022-08-19T00:59:33;14.23;;;12.93;;
8104;SDS011;4095;48.942;9.104;2022-08-19T01:02:01;13.63;;;12.43;;
8104;SDS011;4095;48.942;9.104;2022-08-19T01:04:27;12.90;;;11.70;;
8104;SDS011;4095;48.942;9.104;2022-08-19T01:06:53;14.50;;;13.07;;
8104;SDS011;4095;48.942;9.104;2022-08-19T01:09:18;16.83;;;13.10;;
8104;SDS011;4095;48.942;9.104;2022-08-19T01:11:44;13.55;;;12.25;;
8104;SDS011;4095;48.942;9.104;2022-08-19T01:14:10;13.48;;;12.18;;
8104;SDS011;4095;48.942;9.104;2022-08-19T01:16:37;14.60;;;13.18;;
8104;SDS011;4095;48.942;9.104;2022-08-19T01:19:27;13.40;;;12.10;;
8104;SDS011;4095;48.942;9.104;2022-08-19T01:21:52;13.80;;;12.50;;
8104;SDS011;4095;48.942;9.104;2022-08-19T01:24:23;13.43;;;12.18;;
8104;SDS011;4095;48.942;9.104;2022-08-19T01:26:48;14.38;;;12.95;;
8104;SDS011;4095;48.942;9.104;2022-08-19T01:29:14;14.95;;;13.48;;
8104;SDS011;4095;48.942;9.104;2022-08-19T01:31:40;13.48;;;12.20;;
8104;SDS011;4095;48.942;9.104;2022-08-19T01:34:06;14.40;;;13.10;;
8104;SDS011;4095;48.942;9.104;2022-08-19T01:36:33;13.77;;;12.38;;
8104;SDS011;4095;48.942;9.104;2022-08-19T01:39:07;14.88;;;13.45;;
8104;SDS011;4095;48.942;9.104;2022-08-19T01:41:35;15.90;;;14.43;;
8104;SDS011;4095;48.942;9.104;2022-08-19T01:44:02;14.77;;;13.43;;
8104;SDS011;4095;48.942;9.104;2022-08-19T01:46:30;14.70;;;13.30;;
8104;SDS011;4095;48.942;9.104;2022-08-19T01:48:56;15.30;;;13.90;;
8104;SDS011;4095;48.942;9.104;2022-08-19T01:51:23;16.35;;;14.75;;
8104;SDS011;4095;48.942;9.104;2022-08-19T01:53:49;14.82;;;13.48;;
8104;SDS011;4095;48.942;9.104;2022-08-19T01:56:15;15.65;;;14.05;;
8104;SDS011;4095;48.942;9.104;2022-08-19T01:58:44;14.80;;;13.35;;
8104;SDS011;4095;48.942;9.104;2022-08-19T02:01:16;14.60;;;13.23;;
8104;SDS011;4095;48.942;9.104;2022-08-19T02:03:42;15.77;;;14.25;;
8104;SDS011;4095;48.942;9.104;2022-08-19T02:06:08;15.80;;;14.30;;
8104;SDS011;4095;48.942;9.104;2022-08-19T02:08:35;15.52;;;13.70;;
8104;SDS011;4095;48.942;9.104;2022-08-19T02:11:03;15.63;;;14.02;;
8104;SDS011;4095;48.942;9.104;2022-08-19T02:13:29;15.48;;;14.07;;
8104;SDS011;4095;48.942;9.104;2022-08-19T02:15:56;16.65;;;15.07;;
8104;SDS011;4095;48.942;9.104;2022-08-19T02:18:21;15.68;;;14.25;;
8104;SDS011;4095;48.942;9.104;2022-08-19T02:20:47;16.73;;;15.23;;
8104;SDS011;4095;48.942;9.104;2022-08-19T02:23:13;16.45;;;14.85;;
8104;SDS011;4095;48.942;9.104;2022-08-19T02:25:40;17.80;;;16.08;;
8104;SDS011;4095;48.942;9.104;2022-08-19T02:28:07;17.10;;;15.40;;
8104;SDS011;4095;48.942;9.104;2022-08-19T02:30:33;17.38;;;15.68;;
8104;SDS011;4095;48.942;9.104;2022-08-19T02:32:58;17.15;;;15.45;;
8104;SDS011;4095;48.942;9.104;2022-08-19T02:35:24;17.77;;;16.17;;
8104;SDS011;4095;48.942;9.104;2022-08-19T02:37:50;17.27;;;15.48;;
8104;SDS011;4095;48.942;9.104;2022-08-19T02:40:34;17.40;;;15.77;;
8104;SDS011;4095;48.942;9.104;2022-08-19T02:43:00;18.20;;;16.50;;
8104;SDS011;4095;48.942;9.104;2022-08-19T02:45:31;17.85;;;16.00;;
8104;SDS011;4095;48.942;9.104;2022-08-19T02:47:58;18.27;;;16.48;;
8104;SDS011;4095;48.942;9.104;2022-08-19T02:50:23;16.92;;;15.20;;
8104;SDS011;4095;48.942;9.104;2022-08-19T02:52:49;19.40;;;17.50;;
8104;SDS011;4095;48.942;9.104;2022-08-19T02:55:14;17.33;;;15.70;;
8104;SDS011;4095;48.942;9.104;2022-08-19T02:57:40;17.00;;;15.50;;
8104;SDS011;4095;48.942;9.104;2022-08-19T03:00:07;18.25;;;16.55;;
8104;SDS011;4095;48.942;9.104;2022-08-19T03:02:36;19.23;;;17.42;;
8104;SDS011;4095;48.942;9.104;2022-08-19T03:05:02;18.40;;;16.60;;
8104;SDS011;4095;48.942;9.104;2022-08-19T03:07:29;18.88;;;16.88;;
8104;SDS011;4095;48.942;9.104;2022-08-19T03:09:55;18.42;;;16.63;;
8104;SDS011;4095;48.942;9.104;2022-08-19T03:12:21;18.48;;;16.50;;
8104;SDS011;4095;48.942;9.104;2022-08-19T03:14:46;18.92;;;17.13;;
8104;SDS011;4095;48.942;9.104;2022-08-19T03:17:12;18.33;;;16.63;;
8104;SDS011;4095;48.942;9.104;2022-08-19T03:19:38;18.88;;;17.08;;
8104;SDS011;4095;48.942;9.104;2022-08-19T03:22:03;19.50;;;17.70;;
8104;SDS011;4095;48.942;9.104;2022-08-19T03:24:29;20.02;;;18.00;;
8104;SDS011;4095;48.942;9.104;2022-08-19T03:26:56;19.40;;;17.58;;
8104;SDS011;4095;48.942;9.104;2022-08-19T03:29:22;19.08;;;17.27;;
8104;SDS011;4095;48.942;9.104;2022-08-19T03:31:48;20.13;;;18.10;;
8104;SDS011;4095;48.942;9.104;2022-08-19T03:34:18;19.52;;;17.63;;
8104;SDS011;4095;48.942;9.104;2022-08-19T03:36:46;20.50;;;18.60;;
8104;SDS011;4095;48.942;9.104;2022-08-19T03:39:12;20.20;;;18.23;;
8104;SDS011;4095;48.942;9.104;2022-08-19T03:41:38;19.20;;;17.35;;
8104;SDS011;4095;48.942;9.104;2022-08-19T03:44:05;19.90;;;18.10;;
8104;SDS011;4095;48.942;9.104;2022-08-19T03:46:33;20.75;;;18.75;;
8104;SDS011;4095;48.942;9.104;2022-08-19T03:49:00;21.20;;;19.00;;
8104;SDS011;4095;48.942;9.104;2022-08-19T03:51:31;21.30;;;19.25;;
8104;SDS011;4095;48.942;9.104;2022-08-19T03:54:03;20.70;;;18.80;;
8104;SDS011;4095;48.942;9.104;2022-08-19T03:56:33;21.27;;;19.23;;
8104;SDS011;4095;48.942;9.104;2022-08-19T03:59:00;20.33;;;18.30;;
8104;SDS011;4095;48.942;9.104;2022-08-19T04:01:26;20.50;;;18.42;;
8104;SDS011;4095;48.942;9.104;2022-08-19T04:03:55;20.73;;;18.77;;
8104;SDS011;4095;48.942;9.104;2022-08-19T04:06:25;20.63;;;18.70;;
8104;SDS011;4095;48.942;9.104;2022-08-19T04:08:54;21.70;;;19.52;;
8104;SDS011;4095;48.942;9.104;2022-08-19T04:11:39;20.65;;;18.60;;
8104;SDS011;4095;48.942;9.104;2022-08-19T04:14:09;21.60;;;19.42;;
8104;SDS011;4095;48.942;9.104;2022-08-19T04:16:36;21.05;;;19.05;;
8104;SDS011;4095;48.942;9.104;2022-08-19T04:19:03;21.98;;;19.83;;
8104;SDS011;4095;48.942;9.104;2022-08-19T04:21:30;20.92;;;19.02;;
8104;SDS011;4095;48.942;9.104;2022-08-19T04:23:56;21.77;;;19.67;;
8104;SDS011;4095;48.942;9.104;2022-08-19T04:26:23;23.00;;;20.90;;
8104;SDS011;4095;48.942;9.104;2022-08-19T04:28:51;21.83;;;19.63;;
8104;SDS011;4095;48.942;9.104;2022-08-19T04:31:18;21.95;;;19.95;;
8104;SDS011;4095;48.942;9.104;2022-08-19T04:33:53;22.15;;;20.02;;
8104;SDS011;4095;48.942;9.104;2022-08-19T04:36:22;22.47;;;20.30;;
8104;SDS011;4095;48.942;9.104;2022-08-19T04:38:54;21.35;;;19.45;;
8104;SDS011;4095;48.942;9.104;2022-08-19T04:41:22;22.27;;;20.17;;
8104;SDS011;4095;48.942;9.104;2022-08-19T04:44:07;22.08;;;20.08;;
8104;SDS011;4095;48.942;9.104;2022-08-19T04:46:33;20.88;;;18.95;;
8104;SDS011;4095;48.942;9.104;2022-08-19T04:49:00;22.70;;;20.60;;
8104;SDS011;4095;48.942;9.104;2022-08-19T04:51:27;22.07;;;19.97;;
8104;SDS011;4095;48.942;9.104;2022-08-19T04:53:55;21.80;;;19.70;;
8104;SDS011;4095;48.942;9.104;2022-08-19T04:56:21;21.33;;;19.33;;
8104;SDS011;4095;48.942;9.104;2022-08-19T04:58:47;22.40;;;20.30;;
8104;SDS011;4095;48.942;9.104;2022-08-19T05:01:19;21.10;;;19.27;;
8104;SDS011;4095;48.942;9.104;2022-08-19T05:03:46;21.70;;;19.60;;
8104;SDS011;4095;48.942;9.104;2022-08-19T05:06:13;21.70;;;19.73;;
8104;SDS011;4095;48.942;9.104;2022-08-19T05:08:40;22.73;;;20.50;;
8104;SDS011;4095;48.942;9.104;2022-08-19T05:11:20;20.47;;;18.67;;
8104;SDS011;4095;48.942;9.104;2022-08-19T05:13:48;22.40;;;20.05;;
8104;SDS011;4095;48.942;9.104;2022-08-19T05:16:14;21.80;;;19.80;;
8104;SDS011;4095;48.942;9.104;2022-08-19T05:18:42;22.07;;;19.97;;
8104;SDS011;4095;48.942;9.104;2022-08-19T05:21:26;20.63;;;18.83;;
8104;SDS011;4095;48.942;9.104;2022-08-19T05:24:11;23.07;;;20.97;;
8104;SDS011;4095;48.942;9.104;2022-08-19T05:26:39;21.57;;;19.63;;
8104;SDS011;4095;48.942;9.104;2022-08-19T05:29:07;21.25;;;19.35;;
8104;SDS011;4095;48.942;9.104;2022-08-19T05:31:35;21.40;;;19.37;;
8104;SDS011;4095;48.942;9.104;2022-08-19T05:34:03;21.73;;;19.53;;
8104;SDS011;4095;48.942;9.104;2022-08-19T05:36:33;22.57;;;20.37;;
8104;SDS011;4095;48.942;9.104;2022-08-19T05:39:02;22.30;;;20.30;;
8104;SDS011;4095;48.942;9.104;2022-08-19T05:41:28;21.20;;;19.20;;
8104;SDS011;4095;48.942;9.104;2022-08-19T05:43:58;21.80;;;19.63;;
8104;SDS011;4095;48.942;9.104;2022-08-19T05:46:28;21.38;;;19.40;;
8104;SDS011;4095;48.942;9.104;2022-08-19T05:48:54;21.80;;;19.90;;
8104;SDS011;4095;48.942;9.104;2022-08-19T05:51:21;22.23;;;20.08;;
8104;SDS011;4095;48.942;9.104;2022-08-19T05:53:49;22.90;;;20.73;;
8104;SDS011;4095;48.942;9.104;2022-08-19T05:56:15;22.45;;;20.20;;
8104;SDS011;4095;48.942;9.104;2022-08-19T05:58:42;24.03;;;21.37;;
8104;SDS011;4095;48.942;9.104;2022-08-19T06:01:14;22.57;;;20.47;;
8104;SDS011;4095;48.942;9.104;2022-08-19T06:03:41;22.02;;;20.08;;
8104;SDS011;4095;48.942;9.104;2022-08-19T06:06:08;21.43;;;19.47;;
8104;SDS011;4095;48.942;9.104;2022-08-19T06:08:36;23.50;;;21.30;;
8104;SDS011;4095;48.942;9.104;2022-08-19T06:11:13;21.98;;;19.98;;
8104;SDS011;4095;48.942;9.104;2022-08-19T06:13:40;23.17;;;20.92;;
8104;SDS011;4095;48.942;9.104;2022-08-19T06:16:06;22.38;;;20.38;;
8104;SDS011;4095;48.942;9.104;2022-08-19T06:18:32;21.80;;;19.67;;
8104;SDS011;4095;48.942;9.104;2022-08-19T06:20:58;22.42;;;20.35;;
8104;SDS011;4095;48.942;9.104;2022-08-19T06:23:23;20.77;;;18.87;;
8104;SDS011;4095;48.942;9.104;2022-08-19T06:25:50;21.63;;;19.53;;
8104;SDS011;4095;48.942;9.104;2022-08-19T06:28:16;21.10;;;19.17;;
8104;SDS011;4095;48.942;9.104;2022-08-19T06:30:41;21.10;;;19.08;;
8104;SDS011;4095;48.942;9.104;2022-08-19T06:33:07;21.05;;;19.02;;
8104;SDS011;4095;48.942;9.104;2022-08-19T06:35:32;21.42;;;19.42;;
8104;SDS011;4095;48.942;9.104;2022-08-19T06:38:02;20.77;;;18.92;;
8104;SDS011;4095;48.942;9.104;2022-08-19T06:40:29;21.17;;;19.17;;
8104;SDS011;4095;48.942;9.104;2022-08-19T06:42:55;22.08;;;20.05;;
8104;SDS011;4095;48.942;9.104;2022-08-19T06:45:23;21.17;;;19.15;;
8104;SDS011;4095;48.942;9.104;2022-08-19T06:47:52;20.92;;;18.92;;
8104;SDS011;4095;48.942;9.104;2022-08-19T06:50:21;19.98;;;17.92;;
8104;SDS011;4095;48.942;9.104;2022-08-19T06:52:52;21.20;;;18.90;;
8104;SDS011;4095;48.942;9.104;2022-08-19T06:55:19;19.73;;;17.83;;
8104;SDS011;4095;48.942;9.104;2022-08-19T06:57:44;19.63;;;17.88;;
8104;SDS011;4095;48.942;9.104;2022-08-19T07:00:11;19.80;;;18.10;;
8104;SDS011;4095;48.942;9.104;2022-08-19T07:02:41;19.88;;;17.95;;
8104;SDS011;4095;48.942;9.104;2022-08-19T07:05:07;19.27;;;17.45;;
8104;SDS011;4095;48.942;9.104;2022-08-19T07:07:34;20.77;;;18.88;;
8104;SDS011;4095;48.942;9.104;2022-08-19T07:09:59;19.10;;;17.42;;
8104;SDS011;4095;48.942;9.104;2022-08-19T07:12:30;19.25;;;17.52;;
8104;SDS011;4095;48.942;9.104;2022-08-19T07:14:59;19.40;;;17.70;;
8104;SDS011;4095;48.942;9.104;2022-08-19T07:17:25;20.73;;;18.50;;
8104;SDS011;4095;48.942;9.104;2022-08-19T07:19:50;18.48;;;16.67;;
8104;SDS011;4095;48.942;9.104;2022-08-19T07:22:17;18.80;;;17.00;;
8104;SDS011;4095;48.942;9.104;2022-08-19T07:24:42;17.30;;;15.70;;
8104;SDS011;4095;48.942;9.104;2022-08-19T07:27:08;17.02;;;15.52;;
8104;SDS011;4095;48.942;9.104;2022-08-19T07:29:35;17.13;;;15.52;;
8104;SDS011;4095;48.942;9.104;2022-08-19T07:32:02;17.65;;;16.05;;
8104;SDS011;4095;48.942;9.104;2022-08-19T07:34:29;15.88;;;14.27;;
8104;SDS011;4095;48.942;9.104;2022-08-19T07:36:55;15.75;;;14.25;;
8104;SDS011;4095;48.942;9.104;2022-08-19T07:39:24;16.73;;;15.13;;
8104;SDS011;4095;48.942;9.104;2022-08-19T07:41:53;15.90;;;14.40;;
8104;SDS011;4095;48.942;9.104;2022-08-19T07:44:19;16.38;;;14.68;;
8104;SDS011;4095;48.942;9.104;2022-08-19T07:46:46;15.68;;;14.23;;
8104;SDS011;4095;48.942;9.104;2022-08-19T07:49:15;16.05;;;14.65;;
8104;SDS011;4095;48.942;9.104;2022-08-19T07:51:51;16.05;;;14.55;;
8104;SDS011;4095;48.942;9.104;2022-08-19T07:54:19;17.13;;;15.52;;
8104;SDS011;4095;48.942;9.104;2022-08-19T07:56:46;14.55;;;13.25;;
8104;SDS011;4095;48.942;9.104;2022-08-19T07:59:12;16.92;;;15.32;;
8104;SDS011;4095;48.942;9.104;2022-08-19T08:01:38;15.80;;;14.27;;
8104;SDS011;4095;48.942;9.104;2022-08-19T08:04:05;15.73;;;14.32;;
8104;SDS011;4095;48.942;9.104;2022-08-19T08:06:49;15.25;;;13.93;;
8104;SDS011;4095;48.942;9.104;2022-08-19T08:09:35;15.90;;;14.40;;
8104;SDS011;4095;48.942;9.104;2022-08-19T08:12:07;15.73;;;14.23;;
8104;SDS011;4095;48.942;9.104;2022-08-19T08:14:38;15.27;;;13.80;;
8104;SDS011;4095;48.942;9.104;2022-08-19T08:17:06;14.50;;;13.20;;
8104;SDS011;4095;48.942;9.104;2022-08-19T08:19:33;14.27;;;12.98;;
8104;SDS011;4095;48.942;9.104;2022-08-19T08:21:59;15.32;;;13.82;;
8104;SDS011;4095;48.942;9.104;2022-08-19T08:24:27;14.25;;;12.80;;
8104;SDS011;4095;48.942;9.104;2022-08-19T08:26:55;15.20;;;13.68;;
8104;SDS011;4095;48.942;9.104;2022-08-19T08:29:22;14.70;;;13.23;;
8104;SDS011;4095;48.942;9.104;2022-08-19T08:31:47;14.63;;;13.13;;
8104;SDS011;4095;48.942;9.104;2022-08-19T08:34:13;14.85;;;13.35;;
8104;SDS011;4095;48.942;9.104;2022-08-19T08:36:44;15.32;;;13.80;;
8104;SDS011;4095;48.942;9.104;2022-08-19T08:39:15;14.63;;;13.15;;
8104;SDS011;4095;48.942;9.104;2022-08-19T08:44:15;14.80;;;13.40;;
8104;SDS011;4095;48.942;9.104;2022-08-19T08:46:53;13.13;;;11.82;;
8104;SDS011;4095;48.942;9.104;2022-08-19T08:49:41;14.45;;;13.00;;
8104;SDS011;4095;48.942;9.104;2022-08-19T08:52:16;13.80;;;12.48;;
8104;SDS011;4095;48.942;9.104;2022-08-19T08:54:47;12.90;;;11.70;;
8104;SDS011;4095;48.942;9.104;2022-08-19T08:57:28;13.68;;;12.48;;
8104;SDS011;4095;48.942;9.104;2022-08-19T09:00:09;13.68;;;12.40;;
8104;SDS011;4095;48.942;9.104;2022-08-19T09:02:39;13.50;;;12.30;;
8104;SDS011;4095;48.942;9.104;2022-08-19T09:05:04;13.27;;;12.07;;
8104;SDS011;4095;48.942;9.104;2022-08-19T09:07:36;12.35;;;11.15;;
8104;SDS011;4095;48.942;9.104;2022-08-19T09:15:55;12.25;;;10.95;;
8104;SDS011;4095;48.942;9.104;2022-08-19T09:18:25;12.68;;;11.50;;
8104;SDS011;4095;48.942;9.104;2022-08-19T09:21:03;12.63;;;11.48;;
8104;SDS011;4095;48.942;9.104;2022-08-19T09:23:28;12.30;;;11.00;;
8104;SDS011;4095;48.942;9.104;2022-08-19T09:25:54;12.15;;;10.52;;
8104;SDS011;4095;48.942;9.104;2022-08-19T09:28:19;11.55;;;10.45;;
8104;SDS011;4095;48.942;9.104;2022-08-19T09:30:45;12.30;;;11.10;;
8104;SDS011;4095;48.942;9.104;2022-08-19T09:33:10;12.65;;;11.23;;
8104;SDS011;4095;48.942;9.104;2022-08-19T09:35:36;11.55;;;10.35;;
8104;SDS011;4095;48.942;9.104;2022-08-19T09:38:01;11.00;;;10.00;;
8104;SDS011;4095;48.942;9.104;2022-08-19T09:40:27;12.40;;;10.23;;
8104;SDS011;4095;48.942;9.104;2022-08-19T09:42:54;11.85;;;10.60;;
8104;SDS011;4095;48.942;9.104;2022-08-19T09:45:20;12.23;;;10.98;;
8104;SDS011;4095;48.942;9.104;2022-08-19T09:47:47;11.45;;;10.35;;
8104;SDS011;4095;48.942;9.104;2022-08-19T09:50:13;10.50;;;9.57;;
8104;SDS011;4095;48.942;9.104;2022-08-19T09:52:39;10.30;;;9.23;;
8104;SDS011;4095;48.942;9.104;2022-08-19T09:55:08;11.68;;;10.32;;
8104;SDS011;4095;48.942;9.104;2022-08-19T09:57:34;11.00;;;9.90;;
8104;SDS011;4095;48.942;9.104;2022-08-19T10:00:00;11.52;;;10.43;;
8104;SDS011;4095;48.942;9.104;2022-08-19T10:02:28;13.23;;;11.93;;
8104;SDS011;4095;48.942;9.104;2022-08-19T10:04:54;11.23;;;10.02;;
8104;SDS011;4095;48.942;9.104;2022-08-19T10:07:38;10.35;;;9.25;;
8104;SDS011;4095;48.942;9.104;2022-08-19T10:10:04;10.98;;;9.85;;
8104;SDS011;4095;48.942;9.104;2022-08-19T10:12:31;10.55;;;9.30;;
8104;SDS011;4095;48.942;9.104;2022-08-19T10:14:58;9.20;;;8.30;;
8104;SDS011;4095;48.942;9.104;2022-08-19T10:17:24;9.75;;;8.80;;
8104;SDS011;4095;48.942;9.104;2022-08-19T10:19:50;9.18;;;8.38;;
8104;SDS011;4095;48.942;9.104;2022-08-19T10:22:17;10.27;;;8.30;;
8104;SDS011;4095;48.942;9.104;2022-08-19T10:24:43;8.82;;;7.97;;
8104;SDS011;4095;48.942;9.104;2022-08-19T10:27:12;8.35;;;7.55;;
8104;SDS011;4095;48.942;9.104;2022-08-19T10:29:39;9.27;;;7.55;;
8104;SDS011;4095;48.942;9.104;2022-08-19T10:32:06;7.80;;;7.00;;
8104;SDS011;4095;48.942;9.104;2022-08-19T10:34:33;7.05;;;6.40;;
8104;SDS011;4095;48.942;9.104;2022-08-19T10:37:00;7.28;;;6.40;;
8104;SDS011;4095;48.942;9.104;2022-08-19T10:39:31;8.77;;;5.97;;
8104;SDS011;4095;48.942;9.104;2022-08-19T10:41:58;7.22;;;5.82;;
8104;SDS011;4095;48.942;9.104;2022-08-19T10:44:24;6.63;;;5.90;;
8104;SDS011;4095;48.942;9.104;2022-08-19T10:46:50;7.20;;;6.00;;
8104;SDS011;4095;48.942;9.104;2022-08-19T10:49:17;9.15;;;6.22;;
8104;SDS011;4095;48.942;9.104;2022-08-19T10:51:44;10.88;;;6.40;;
8104;SDS011;4095;48.942;9.104;2022-08-19T10:54:28;7.43;;;6.68;;
8104;SDS011;4095;48.942;9.104;2022-08-19T10:57:13;7.80;;;6.35;;
8104;SDS011;4095;48.942;9.104;2022-08-19T10:59:40;7.35;;;6.40;;
8104;SDS011;4095;48.942;9.104;2022-08-19T11:02:07;7.40;;;6.53;;
8104;SDS011;4095;48.942;9.104;2022-08-19T11:04:35;7.55;;;6.75;;
8104;SDS011;4095;48.942;9.104;2022-08-19T11:07:02;7.13;;;6.43;;
8104;SDS011;4095;48.942;9.104;2022-08-19T11:09:29;6.80;;;6.10;;
8104;SDS011;4095;48.942;9.104;2022-08-19T11:11:55;7.80;;;6.18;;
8104;SDS011;4095;48.942;9.104;2022-08-19T11:14:21;7.20;;;6.30;;
8104;SDS011;4095;48.942;9.104;2022-08-19T11:16:48;6.88;;;6.18;;
8104;SDS011;4095;48.942;9.104;2022-08-19T11:19:16;6.90;;;6.28;;
8104;SDS011;4095;48.942;9.104;2022-08-19T11:21:44;6.75;;;6.05;;
8104;SDS011;4095;48.942;9.104;2022-08-19T11:24:19;8.63;;;6.63;;
8104;SDS011;4095;48.942;9.104;2022-08-19T11:26:46;6.93;;;6.32;;
8104;SDS011;4095;48.942;9.104;2022-08-19T11:29:16;7.10;;;6.45;;
8104;SDS011;4095;48.942;9.104;2022-08-19T11:31:45;7.13;;;6.43;;
8104;SDS011;4095;48.942;9.104;2022-08-19T11:34:14;7.82;;;6.75;;
8104;SDS011;4095;48.942;9.104;2022-08-19T11:36:43;7.15;;;6.47;;
8104;SDS011;4095;48.942;9.104;2022-08-19T11:39:11;7.30;;;6.57;;
8104;SDS011;4095;48.942;9.104;2022-08-19T11:41:39;14.40;;;7.95;;
8104;SDS011;4095;48.942;9.104;2022-08-19T11:44:05;7.82;;;6.95;;
8104;SDS011;4095;48.942;9.104;2022-08-19T11:46:33;7.55;;;6.85;;
8104;SDS011;4095;48.942;9.104;2022-08-19T11:49:00;7.40;;;6.75;;
8104;SDS011;4095;48.942;9.104;2022-08-19T11:51:28;8.77;;;6.78;;
8104;SDS011;4095;48.942;9.104;2022-08-19T11:53:55;8.30;;;7.28;;
8104;SDS011;4095;48.942;9.104;2022-08-19T11:56:22;8.18;;;7.43;;
8104;SDS011;4095;48.942;9.104;2022-08-19T11:58:49;7.57;;;6.88;;
8104;SDS011;4095;48.942;9.104;2022-08-19T12:01:16;8.30;;;7.50;;
8104;SDS011;4095;48.942;9.104;2022-08-19T12:03:44;9.43;;;6.80;;
8104;SDS011;4095;48.942;9.104;2022-08-19T12:06:11;6.93;;;6.30;;
8104;SDS011;4095;48.942;9.104;2022-08-19T12:08:39;8.38;;;6.60;;
8104;SDS011;4095;48.942;9.104;2022-08-19T12:11:06;7.32;;;6.68;;
8104;SDS011;4095;48.942;9.104;2022-08-19T12:13:35;7.03;;;6.32;;
8104;SDS011;4095;48.942;9.104;2022-08-19T12:16:07;6.38;;;5.72;;
8104;SDS011;4095;48.942;9.104;2022-08-19T12:18:37;6.60;;;5.90;;
8104;SDS011;4095;48.942;9.104;2022-08-19T12:21:08;6.80;;;6.22;;
8104;SDS011;4095;48.942;9.104;2022-08-19T12:23:36;6.45;;;5.95;;
8104;SDS011;4095;48.942;9.104;2022-08-19T12:26:02;12.98;;;6.32;;
8104;SDS011;4095;48.942;9.104;2022-08-19T12:28:28;7.15;;;5.95;;
8104;SDS011;4095;48.942;9.104;2022-08-19T12:30:55;6.05;;;5.43;;
8104;SDS011;4095;48.942;9.104;2022-08-19T12:33:22;6.40;;;5.53;;
8104;SDS011;4095;48.942;9.104;2022-08-19T12:35:52;7.47;;;5.53;;
8104;SDS011;4095;48.942;9.104;2022-08-19T12:38:18;6.03;;;5.45;;
8104;SDS011;4095;48.942;9.104;2022-08-19T12:40:47;6.13;;;5.53;;
8104;SDS011;4095;48.942;9.104;2022-08-19T12:43:13;6.32;;;5.82;;
8104;SDS011;4095;48.942;9.104;2022-08-19T12:45:40;5.95;;;5.18;;
8104;SDS011;4095;48.942;9.104;2022-08-19T12:48:07;5.50;;;5.00;;
8104;SDS011;4095;48.942;9.104;2022-08-19T12:50:33;6.13;;;5.22;;
8104;SDS011;4095;48.942;9.104;2022-08-19T12:52:58;5.18;;;4.68;;
8104;SDS011;4095;48.942;9.104;2022-08-19T12:55:24;5.63;;;4.93;;
8104;SDS011;4095;48.942;9.104;2022-08-19T12:57:50;5.07;;;4.68;;
8104;SDS011;4095;48.942;9.104;2022-08-19T13:00:17;5.88;;;5.07;;
8104;SDS011;4095;48.942;9.104;2022-08-19T13:02:46;5.03;;;4.60;;
8104;SDS011;4095;48.942;9.104;2022-08-19T13:05:15;5.05;;;4.55;;
8104;SDS011;4095;48.942;9.104;2022-08-19T13:07:45;5.63;;;4.47;;
8104;SDS011;4095;48.942;9.104;2022-08-19T13:10:12;4.80;;;4.40;;
8104;SDS011;4095;48.942;9.104;2022-08-19T13:12:40;4.95;;;4.45;;
8104;SDS011;4095;48.942;9.104;2022-08-19T13:15:07;4.93;;;4.53;;
8104;SDS011;4095;48.942;9.104;2022-08-19T13:17:33;4.40;;;4.00;;
8104;SDS011;4095;48.942;9.104;2022-08-19T13:20:00;4.85;;;4.43;;
8104;SDS011;4095;48.942;9.104;2022-08-19T13:22:25;5.18;;;4.10;;
8104;SDS011;4095;48.942;9.104;2022-08-19T13:24:51;4.97;;;4.38;;
8104;SDS011;4095;48.942;9.104;2022-08-19T13:27:17;4.75;;;4.35;;
8104;SDS011;4095;48.942;9.104;2022-08-19T13:29:43;6.18;;;4.40;;
8104;SDS011;4095;48.942;9.104;2022-08-19T13:32:28;4.80;;;4.30;;
8104;SDS011;4095;48.942;9.104;2022-08-19T13:35:12;5.28;;;4.55;;
8104;SDS011;4095;48.942;9.104;2022-08-19T13:37:38;5.20;;;4.40;;
8104;SDS011;4095;48.942;9.104;2022-08-19T13:40:08;4.82;;;4.32;;
8104;SDS011;4095;48.942;9.104;2022-08-19T13:42:38;4.95;;;4.45;;
8104;SDS011;4095;48.942;9.104;2022-08-19T13:45:04;4.75;;;4.20;;
8104;SDS011;4095;48.942;9.104;2022-08-19T13:47:31;5.70;;;4.38;;
8104;SDS011;4095;48.942;9.104;2022-08-19T13:49:59;5.25;;;4.78;;
8104;SDS011;4095;48.942;9.104;2022-08-19T13:52:28;5.30;;;4.68;;
8104;SDS011;4095;48.942;9.104;2022-08-19T13:54:54;6.03;;;4.80;;
8104;SDS011;4095;48.942;9.104;2022-08-19T13:57:19;5.10;;;4.60;;
8104;SDS011;4095;48.942;9.104;2022-08-19T13:59:45;4.35;;;3.95;;
8104;SDS011;4095;48.942;9.104;2022-08-19T14:02:11;5.53;;;5.03;;
8104;SDS011;4095;48.942;9.104;2022-08-19T14:04:36;5.78;;;5.28;;
8104;SDS011;4095;48.942;9.104;2022-08-19T14:07:02;7.03;;;6.28;;
8104;SDS011;4095;48.942;9.104;2022-08-19T14:09:28;6.32;;;5.72;;
8104;SDS011;4095;48.942;9.104;2022-08-19T14:11:54;7.43;;;5.35;;
8104;SDS011;4095;48.942;9.104;2022-08-19T14:14:20;5.88;;;5.30;;
8104;SDS011;4095;48.942;9.104;2022-08-19T14:16:46;5.55;;;5.00;;
8104;SDS011;4095;48.942;9.104;2022-08-19T14:19:12;5.53;;;5.03;;
8104;SDS011;4095;48.942;9.104;2022-08-19T14:21:37;5.75;;;5.18;;
8104;SDS011;4095;48.942;9.104;2022-08-19T14:24:04;5.53;;;5.03;;
8104;SDS011;4095;48.942;9.104;2022-08-19T14:26:29;5.45;;;4.72;;
8104;SDS011;4095;48.942;9.104;2022-08-19T14:28:55;5.25;;;4.60;;
8104;SDS011;4095;48.942;9.104;2022-08-19T14:31:22;4.88;;;4.47;;
8104;SDS011;4095;48.942;9.104;2022-08-19T14:33:49;4.90;;;4.40;;
8104;SDS011;4095;48.942;9.104;2022-08-19T14:36:15;5.15;;;4.65;;
8104;SDS011;4095;48.942;9.104;2022-08-19T14:38:42;5.70;;;4.82;;
8104;SDS011;4095;48.942;9.104;2022-08-19T14:43:47;5.00;;;4.57;;
8104;SDS011;4095;48.942;9.104;2022-08-19T14:46:15;5.50;;;4.80;;
8104;SDS011;4095;48.942;9.104;2022-08-19T14:48:42;5.18;;;4.68;;
8104;SDS011;4095;48.942;9.104;2022-08-19T14:51:08;24.77;;;7.55;;
8104;SDS011;4095;48.942;9.104;2022-08-19T14:53:34;4.68;;;4.28;;
8104;SDS011;4095;48.942;9.104;2022-08-19T14:56:00;5.57;;;4.85;;
8104;SDS011;4095;48.942;9.104;2022-08-19T14:58:27;5.28;;;4.50;;
8104;SDS011;4095;48.942;9.104;2022-08-19T15:00:53;6.88;;;5.22;;
8104;SDS011;4095;48.942;9.104;2022-08-19T15:03:18;5.72;;;5.20;;
8104;SDS011;4095;48.942;9.104;2022-08-19T15:05:44;5.18;;;4.68;;
8104;SDS011;4095;48.942;9.104;2022-08-19T15:08:10;4.82;;;4.20;;
8104;SDS011;4095;48.942;9.104;2022-08-19T15:10:35;6.15;;;4.38;;
8104;SDS011;4095;48.942;9.104;2022-08-19T15:13:03;6.97;;;6.05;;